Wicked — WDJ9309 — position and weather

sailwx.info

Track history (hours):
 
Tides and Currents Weather Stations Pressure Air Temp Water Temp Dewpoint Dewpoint Depression Visibility Wind Speed Wind Dir Waves Ship Positions

Wicked

Owner: Bruen, Michael, Sammamish, WA. More information available from US FCC via Universal Licensing System and Coast Guard Vessel Documentation Center.

Last reported at 2018-Aug-13 22:42 UTC. Time now 2018-Aug-14 13:48 UTC.
Position N 48°31' W 122°36'.

Length 15 m.

Type: Sailing vessel. MMSI: 368024770.

Date/timePositionNaut miles runAvg speedWind from/ knotsBaromVisibWave heightAir tempDewpointWater temp
2018-Aug-13 22:42N 48°31' W 122°36'2 8.1
2018-Aug-13 22:26N 48°31' W 122°39'5 8.1
2018-Aug-13 21:50N 48°32' W 122°46'2 7.3
2018-Aug-13 21:30N 48°32' W 122°50'12 7.0
2018-Aug-13 19:48N 48°37' W 123°06'1 4.8
2018-Aug-13 19:30N 48°37' W 123°08'  
2018-Aug-10 23:45N 48°60' W 123°36'2 6.2
2018-Aug-10 23:30N 49°01' W 123°35'2 4.7
2018-Aug-10 23:00N 49°03' W 123°36'4 7.1
2018-Aug-10 22:29N 49°07' W 123°38'3 7.0
2018-Aug-10 22:00N 49°10' W 123°38'2 4.1
2018-Aug-10 21:30N 49°11' W 123°41'2 3.1
2018-Aug-10 20:59N 49°11' W 123°44'3 6.5
2018-Aug-10 20:29N 49°13' W 123°48'4 7.0
2018-Aug-10 19:59N 49°14' W 123°53'2 4.8
2018-Aug-10 19:29N 49°15' W 123°56'2 4.5
2018-Aug-10 18:59N 49°15' W 123°59'2 4.7
2018-Aug-10 18:27N 49°18' W 124°01'2 3.6
2018-Aug-10 18:00N 49°19' W 124°02'4 8.4
2018-Aug-10 17:30N 49°21' W 124°08'25 0.6
2018-Aug-08 23:19N 49°44' W 124°22'5 8.0
2018-Aug-08 22:44N 49°46' W 124°29'2 7.7
2018-Aug-08 22:29N 49°46' W 124°32'3 3.8
2018-Aug-08 21:45N 49°48' W 124°35'2 3.4
2018-Aug-08 21:18N 49°49' W 124°35'1 4.3
2018-Aug-08 20:58N 49°51' W 124°36'3 6.9
2018-Aug-08 20:31N 49°53' W 124°39'4 7.7
2018-Aug-08 20:00N 49°56' W 124°44'4 7.7
2018-Aug-08 19:30N 49°58' W 124°49'4 8.2
2018-Aug-08 18:59N 50°00' W 124°54'4 7.8
2018-Aug-08 18:30N 49°60' W 125°00'4 8.1
2018-Aug-08 18:00N 50°03' W 125°04'3 6.7
2018-Aug-08 17:30N 50°06' W 125°06'1 2.6
2018-Aug-08 17:00N 50°07' W 125°06'1 2.8
2018-Aug-08 16:30N 50°07' W 125°08'1 1.6
2018-Aug-08 16:00N 50°08' W 125°09'3 6.2
2018-Aug-08 15:30N 50°11' W 125°09'3 6.0
2018-Aug-08 15:00N 50°14' W 125°09'2 4.1
2018-Aug-08 14:27N 50°15' W 125°11'2 2.0
2018-Aug-08 13:24N 50°16' W 125°14'0 0.0
2018-Aug-08 12:57N 50°16' W 125°14'0 0.0
2018-Aug-08 11:48N 50°16' W 125°14'0 0.0
2018-Aug-08 11:27N 50°16' W 125°14'0 0.0
2018-Aug-08 10:57N 50°16' W 125°14'0 0.0
2018-Aug-08 10:18N 50°16' W 125°14'0 0.0
2018-Aug-08 10:00N 50°16' W 125°14'0 0.0
2018-Aug-08 09:30N 50°16' W 125°14'0 0.0
2018-Aug-08 08:51N 50°16' W 125°14'0 0.0
2018-Aug-08 08:30N 50°16' W 125°14'0 0.0
2018-Aug-08 08:00N 50°16' W 125°14'0 0.0
2018-Aug-08 07:00N 50°16' W 125°14'0 0.0
2018-Aug-08 06:21N 50°16' W 125°14'0 0.0
2018-Aug-08 05:21N 50°16' W 125°14'0 0.0
2018-Aug-08 05:00N 50°16' W 125°14'0 0.1
2018-Aug-08 04:27N 50°16' W 125°14'0 0.0
2018-Aug-08 04:00N 50°16' W 125°14'0 0.0
2018-Aug-08 03:30N 50°16' W 125°14'0 0.0
2018-Aug-08 02:45N 50°16' W 125°14'0 0.0
2018-Aug-08 02:21N 50°16' W 125°14'0 0.0
2018-Aug-08 01:18N 50°16' W 125°14'0 0.0
2018-Aug-08 00:51N 50°16' W 125°14'0 0.1
2018-Aug-08 00:21N 50°16' W 125°14'0 0.1
2018-Aug-07 23:42N 50°16' W 125°14'0 0.1
2018-Aug-07 23:18N 50°16' W 125°14'0 0.0
2018-Aug-07 22:52N 50°16' W 125°14'0 0.1
2018-Aug-07 22:25N 50°16' W 125°14'0 0.0
2018-Aug-07 20:40N 50°16' W 125°14'0 0.0
2018-Aug-07 17:55N 50°16' W 125°14'0 0.0
2018-Aug-07 17:22N 50°16' W 125°14'0 0.0
2018-Aug-07 16:58N 50°16' W 125°14'0 0.0
2018-Aug-07 16:22N 50°16' W 125°14'0 0.0
2018-Aug-07 16:01N 50°16' W 125°14'0 0.0
2018-Aug-07 15:22N 50°16' W 125°14'0 0.0
2018-Aug-07 15:01N 50°16' W 125°14'0 0.1
2018-Aug-07 14:28N 50°16' W 125°14'0 0.1
2018-Aug-07 13:52N 50°16' W 125°14'0 0.1
2018-Aug-07 13:30N 50°16' W 125°14'0 0.0
2018-Aug-07 13:01N 50°16' W 125°14'0 0.0
2018-Aug-07 11:25N 50°16' W 125°14'0 0.0
2018-Aug-07 10:10N 50°16' W 125°14'0 0.0
2018-Aug-07 10:01N 50°16' W 125°14'0 0.0
2018-Aug-07 09:14N 50°16' W 125°14'0 0.0
2018-Aug-07 08:35N 50°16' W 125°14'0 0.0
2018-Aug-07 08:15N 50°16' W 125°14'0 0.0
2018-Aug-07 07:53N 50°16' W 125°14'0 0.0
2018-Aug-07 07:26N 50°16' W 125°14'0 0.0
2018-Aug-07 04:56N 50°16' W 125°14'0 0.0
2018-Aug-07 03:56N 50°16' W 125°14'0 0.0
2018-Aug-07 03:18N 50°16' W 125°14'0 0.1
2018-Aug-07 02:56N 50°16' W 125°14'0 0.0
2018-Aug-07 02:17N 50°16' W 125°14'0 0.0
2018-Aug-07 00:56N 50°16' W 125°14'0 0.0
2018-Aug-07 00:12N 50°16' W 125°14'0 0.0
2018-Aug-06 23:59N 50°16' W 125°14'0 0.0
2018-Aug-06 23:30N 50°16' W 125°14'0 0.0
2018-Aug-06 22:47N 50°16' W 125°14'0 0.0
2018-Aug-06 21:32N 50°16' W 125°14'0 0.0
2018-Aug-06 21:06N 50°16' W 125°14'0 0.0
2018-Aug-06 21:00N 50°16' W 125°14'0 0.1
2018-Aug-06 20:29N 50°16' W 125°14'5 6.4
2018-Aug-06 19:41N 50°20' W 125°08'1 7.1
2018-Aug-06 19:30N 50°19' W 125°06'4 6.9
2018-Aug-06 18:59N 50°20' W 125°00'4 7.4
2018-Aug-06 18:29N 50°19' W 124°55'8 0.2
2018-Aug-04 21:47N 50°18' W 124°42'2 8.0
2018-Aug-04 21:30N 50°17' W 124°39'4 7.6
2018-Aug-04 21:00N 50°13' W 124°38'2 4.3
2018-Aug-04 20:30N 50°11' W 124°39'1 1.9
2018-Aug-04 20:00N 50°10' W 124°39'1 2.9
2018-Aug-04 19:30N 50°09' W 124°41'0 0.4
2018-Aug-04 19:00N 50°09' W 124°41'1 1.0
2018-Aug-04 18:30N 50°08' W 124°41'0 0.0
2018-Aug-04 18:00N 50°08' W 124°41'0 0.0
2018-Aug-04 17:30N 50°08' W 124°41'0 0.0
2018-Aug-04 17:00N 50°08' W 124°41'0 0.0
2018-Aug-04 16:30N 50°08' W 124°41'0 0.0
2018-Aug-04 16:00N 50°08' W 124°41'0 0.0
2018-Aug-04 15:30N 50°08' W 124°41'0 0.0
2018-Aug-04 15:00N 50°08' W 124°41'0 0.0
2018-Aug-04 14:30N 50°08' W 124°41'0 0.0
2018-Aug-04 14:00N 50°08' W 124°41'0 0.0
2018-Aug-04 13:30N 50°08' W 124°41'0 0.0
2018-Aug-04 13:00N 50°08' W 124°41'0 0.0
2018-Aug-04 12:30N 50°08' W 124°41'0 0.0
2018-Aug-04 12:00N 50°08' W 124°41'0 0.0
2018-Aug-04 11:30N 50°08' W 124°41'0 0.0
2018-Aug-04 11:00N 50°08' W 124°41'0 0.0
2018-Aug-04 10:30N 50°08' W 124°41'0 0.0
2018-Aug-04 10:00N 50°08' W 124°41'0 0.0
2018-Aug-04 09:30N 50°08' W 124°41'0 0.0
2018-Aug-04 09:00N 50°08' W 124°41'0 0.0
2018-Aug-04 08:30N 50°08' W 124°41'0 0.0
2018-Aug-04 08:00N 50°08' W 124°41'0 0.0
2018-Aug-04 07:30N 50°08' W 124°41'0 0.0
2018-Aug-04 07:00N 50°08' W 124°41'0 0.0
2018-Aug-04 06:30N 50°08' W 124°41'0 0.0
2018-Aug-04 06:00N 50°08' W 124°41'0 0.0
2018-Aug-04 05:30N 50°08' W 124°41'0 0.0
2018-Aug-04 05:00N 50°08' W 124°41'0 0.0
2018-Aug-04 04:30N 50°08' W 124°41'0 0.0
2018-Aug-04 04:00N 50°08' W 124°41'0 0.0
2018-Aug-04 03:30N 50°08' W 124°41'0 0.0
2018-Aug-04 03:00N 50°08' W 124°41'0 0.0
2018-Aug-04 02:30N 50°08' W 124°41'0 0.0
2018-Aug-04 02:00N 50°08' W 124°41'0 0.0
2018-Aug-04 01:30N 50°08' W 124°41'0 0.0
2018-Aug-04 01:00N 50°08' W 124°41'0 0.0
2018-Aug-04 00:30N 50°08' W 124°41'0 0.0
2018-Aug-03 23:59N 50°08' W 124°41'0 0.0
2018-Aug-03 23:29N 50°08' W 124°41'0 0.0
2018-Aug-03 22:59N 50°08' W 124°41'  
Track history (hours):
 
Tides and Currents Weather Stations Pressure Air Temp Water Temp Dewpoint Dewpoint Depression Visibility Wind Speed Wind Dir Waves Ship Positions

Wicked

Owner: Bruen, Michael, Sammamish, WA. More information available from US FCC via Universal Licensing System and Coast Guard Vessel Documentation Center.

Last reported at 2018-Aug-13 22:42 UTC. Time now 2018-Aug-14 13:48 UTC.
Position N 48°31' W 122°36'.

Length 15 m.

Type: Sailing vessel. MMSI: 368024770.

Date/timePositionNaut miles runAvg speedWind from/ knotsBaromVisibWave heightAir tempDewpointWater temp
2018-Aug-13 22:42N 48°31' W 122°36'2 8.1
2018-Aug-13 22:26N 48°31' W 122°39'5 8.1
2018-Aug-13 21:50N 48°32' W 122°46'2 7.3
2018-Aug-13 21:30N 48°32' W 122°50'12 7.0
2018-Aug-13 19:48N 48°37' W 123°06'1 4.8
2018-Aug-13 19:30N 48°37' W 123°08'  
2018-Aug-10 23:45N 48°60' W 123°36'2 6.2
2018-Aug-10 23:30N 49°01' W 123°35'2 4.7
2018-Aug-10 23:00N 49°03' W 123°36'4 7.1
2018-Aug-10 22:29N 49°07' W 123°38'3 7.0
2018-Aug-10 22:00N 49°10' W 123°38'2 4.1
2018-Aug-10 21:30N 49°11' W 123°41'2 3.1
2018-Aug-10 20:59N 49°11' W 123°44'3 6.5
2018-Aug-10 20:29N 49°13' W 123°48'4 7.0
2018-Aug-10 19:59N 49°14' W 123°53'2 4.8
2018-Aug-10 19:29N 49°15' W 123°56'2 4.5
2018-Aug-10 18:59N 49°15' W 123°59'2 4.7
2018-Aug-10 18:27N 49°18' W 124°01'2 3.6
2018-Aug-10 18:00N 49°19' W 124°02'4 8.4
2018-Aug-10 17:30N 49°21' W 124°08'25 0.6
2018-Aug-08 23:19N 49°44' W 124°22'5 8.0
2018-Aug-08 22:44N 49°46' W 124°29'2 7.7
2018-Aug-08 22:29N 49°46' W 124°32'3 3.8
2018-Aug-08 21:45N 49°48' W 124°35'2 3.4
2018-Aug-08 21:18N 49°49' W 124°35'1 4.3
2018-Aug-08 20:58N 49°51' W 124°36'3 6.9
2018-Aug-08 20:31N 49°53' W 124°39'4 7.7
2018-Aug-08 20:00N 49°56' W 124°44'4 7.7
2018-Aug-08 19:30N 49°58' W 124°49'4 8.2
2018-Aug-08 18:59N 50°00' W 124°54'4 7.8
2018-Aug-08 18:30N 49°60' W 125°00'4 8.1
2018-Aug-08 18:00N 50°03' W 125°04'3 6.7
2018-Aug-08 17:30N 50°06' W 125°06'1 2.6
2018-Aug-08 17:00N 50°07' W 125°06'1 2.8
2018-Aug-08 16:30N 50°07' W 125°08'1 1.6
2018-Aug-08 16:00N 50°08' W 125°09'3 6.2
2018-Aug-08 15:30N 50°11' W 125°09'3 6.0
2018-Aug-08 15:00N 50°14' W 125°09'2 4.1
2018-Aug-08 14:27N 50°15' W 125°11'2 2.0
2018-Aug-08 13:24N 50°16' W 125°14'0 0.0
2018-Aug-08 12:57N 50°16' W 125°14'0 0.0
2018-Aug-08 11:48N 50°16' W 125°14'0 0.0
2018-Aug-08 11:27N 50°16' W 125°14'0 0.0
2018-Aug-08 10:57N 50°16' W 125°14'0 0.0
2018-Aug-08 10:18N 50°16' W 125°14'0 0.0
2018-Aug-08 10:00N 50°16' W 125°14'0 0.0
2018-Aug-08 09:30N 50°16' W 125°14'0 0.0
2018-Aug-08 08:51N 50°16' W 125°14'0 0.0
2018-Aug-08 08:30N 50°16' W 125°14'0 0.0
2018-Aug-08 08:00N 50°16' W 125°14'0 0.0
2018-Aug-08 07:00N 50°16' W 125°14'0 0.0
2018-Aug-08 06:21N 50°16' W 125°14'0 0.0
2018-Aug-08 05:21N 50°16' W 125°14'0 0.0
2018-Aug-08 05:00N 50°16' W 125°14'0 0.1
2018-Aug-08 04:27N 50°16' W 125°14'0 0.0
2018-Aug-08 04:00N 50°16' W 125°14'0 0.0
2018-Aug-08 03:30N 50°16' W 125°14'0 0.0
2018-Aug-08 02:45N 50°16' W 125°14'0 0.0
2018-Aug-08 02:21N 50°16' W 125°14'0 0.0
2018-Aug-08 01:18N 50°16' W 125°14'0 0.0
2018-Aug-08 00:51N 50°16' W 125°14'0 0.1
2018-Aug-08 00:21N 50°16' W 125°14'0 0.1
2018-Aug-07 23:42N 50°16' W 125°14'0 0.1
2018-Aug-07 23:18N 50°16' W 125°14'0 0.0
2018-Aug-07 22:52N 50°16' W 125°14'0 0.1
2018-Aug-07 22:25N 50°16' W 125°14'0 0.0
2018-Aug-07 20:40N 50°16' W 125°14'0 0.0
2018-Aug-07 17:55N 50°16' W 125°14'0 0.0
2018-Aug-07 17:22N 50°16' W 125°14'0 0.0
2018-Aug-07 16:58N 50°16' W 125°14'0 0.0
2018-Aug-07 16:22N 50°16' W 125°14'0 0.0
2018-Aug-07 16:01N 50°16' W 125°14'0 0.0
2018-Aug-07 15:22N 50°16' W 125°14'0 0.0
2018-Aug-07 15:01N 50°16' W 125°14'0 0.1
2018-Aug-07 14:28N 50°16' W 125°14'0 0.1
2018-Aug-07 13:52N 50°16' W 125°14'0 0.1
2018-Aug-07 13:30N 50°16' W 125°14'0 0.0
2018-Aug-07 13:01N 50°16' W 125°14'0 0.0
2018-Aug-07 11:25N 50°16' W 125°14'0 0.0
2018-Aug-07 10:10N 50°16' W 125°14'0 0.0
2018-Aug-07 10:01N 50°16' W 125°14'0 0.0
2018-Aug-07 09:14N 50°16' W 125°14'0 0.0
2018-Aug-07 08:35N 50°16' W 125°14'0 0.0
2018-Aug-07 08:15N 50°16' W 125°14'0 0.0
2018-Aug-07 07:53N 50°16' W 125°14'0 0.0
2018-Aug-07 07:26N 50°16' W 125°14'0 0.0
2018-Aug-07 04:56N 50°16' W 125°14'0 0.0
2018-Aug-07 03:56N 50°16' W 125°14'0 0.0
2018-Aug-07 03:18N 50°16' W 125°14'0 0.1
2018-Aug-07 02:56N 50°16' W 125°14'0 0.0
2018-Aug-07 02:17N 50°16' W 125°14'0 0.0
2018-Aug-07 00:56N 50°16' W 125°14'0 0.0
2018-Aug-07 00:12N 50°16' W 125°14'0 0.0
2018-Aug-06 23:59N 50°16' W 125°14'0 0.0
2018-Aug-06 23:30N 50°16' W 125°14'0 0.0
2018-Aug-06 22:47N 50°16' W 125°14'0 0.0
2018-Aug-06 21:32N 50°16' W 125°14'0 0.0
2018-Aug-06 21:06N 50°16' W 125°14'0 0.0
2018-Aug-06 21:00N 50°16' W 125°14'0 0.1
2018-Aug-06 20:29N 50°16' W 125°14'5 6.4
2018-Aug-06 19:41N 50°20' W 125°08'1 7.1
2018-Aug-06 19:30N 50°19' W 125°06'4 6.9
2018-Aug-06 18:59N 50°20' W 125°00'4 7.4
2018-Aug-06 18:29N 50°19' W 124°55'8 0.2
2018-Aug-04 21:47N 50°18' W 124°42'2 8.0
2018-Aug-04 21:30N 50°17' W 124°39'4 7.6
2018-Aug-04 21:00N 50°13' W 124°38'2 4.3
2018-Aug-04 20:30N 50°11' W 124°39'1 1.9
2018-Aug-04 20:00N 50°10' W 124°39'1 2.9
2018-Aug-04 19:30N 50°09' W 124°41'0 0.4
2018-Aug-04 19:00N 50°09' W 124°41'1 1.0
2018-Aug-04 18:30N 50°08' W 124°41'0 0.0
2018-Aug-04 18:00N 50°08' W 124°41'0 0.0
2018-Aug-04 17:30N 50°08' W 124°41'0 0.0
2018-Aug-04 17:00N 50°08' W 124°41'0 0.0
2018-Aug-04 16:30N 50°08' W 124°41'0 0.0
2018-Aug-04 16:00N 50°08' W 124°41'0 0.0
2018-Aug-04 15:30N 50°08' W 124°41'0 0.0
2018-Aug-04 15:00N 50°08' W 124°41'0 0.0
2018-Aug-04 14:30N 50°08' W 124°41'0 0.0
2018-Aug-04 14:00N 50°08' W 124°41'0 0.0
2018-Aug-04 13:30N 50°08' W 124°41'0 0.0
2018-Aug-04 13:00N 50°08' W 124°41'0 0.0
2018-Aug-04 12:30N 50°08' W 124°41'0 0.0
2018-Aug-04 12:00N 50°08' W 124°41'0 0.0
2018-Aug-04 11:30N 50°08' W 124°41'0 0.0
2018-Aug-04 11:00N 50°08' W 124°41'0 0.0
2018-Aug-04 10:30N 50°08' W 124°41'0 0.0
2018-Aug-04 10:00N 50°08' W 124°41'0 0.0
2018-Aug-04 09:30N 50°08' W 124°41'0 0.0
2018-Aug-04 09:00N 50°08' W 124°41'0 0.0
2018-Aug-04 08:30N 50°08' W 124°41'0 0.0
2018-Aug-04 08:00N 50°08' W 124°41'0 0.0
2018-Aug-04 07:30N 50°08' W 124°41'0 0.0
2018-Aug-04 07:00N 50°08' W 124°41'0 0.0
2018-Aug-04 06:30N 50°08' W 124°41'0 0.0
2018-Aug-04 06:00N 50°08' W 124°41'0 0.0
2018-Aug-04 05:30N 50°08' W 124°41'0 0.0
2018-Aug-04 05:00N 50°08' W 124°41'0 0.0
2018-Aug-04 04:30N 50°08' W 124°41'0 0.0
2018-Aug-04 04:00N 50°08' W 124°41'0 0.0
2018-Aug-04 03:30N 50°08' W 124°41'0 0.0
2018-Aug-04 03:00N 50°08' W 124°41'0 0.0
2018-Aug-04 02:30N 50°08' W 124°41'0 0.0
2018-Aug-04 02:00N 50°08' W 124°41'0 0.0
2018-Aug-04 01:30N 50°08' W 124°41'0 0.0
2018-Aug-04 01:00N 50°08' W 124°41'0 0.0
2018-Aug-04 00:30N 50°08' W 124°41'0 0.0
2018-Aug-03 23:59N 50°08' W 124°41'0 0.0
2018-Aug-03 23:29N 50°08' W 124°41'0 0.0
2018-Aug-03 22:59N 50°08' W 124°41'  

Dump ship's entire track history